Time;durP1;ratioP1;P1;durP2;ratioP2;P2;SDS_P1;SDS_P2;PMS_P1;PMS_P2;Temp;Humidity;BMP_temperature;BMP_pressure;BME280_temperature;BME280_humidity;BME280_pressure;Samples;Min_cycle;Max_cycle;Signal;HPM_P1;HPM_P2
2022/06/12 00:02:24;;;;;;;7.15;5.20;;;;;;;15.32;72.13;101071.59;1747150;80;21061;-79
2022/06/12 00:04:52;;;;;;;5.62;4.50;;;;;;;15.43;72.14;101072.41;1741129;81;21027;-81
2022/06/12 00:07:19;;;;;;;6.33;4.92;;;;;;;15.50;72.18;101069.05;1751888;81;21527;-79
2022/06/12 00:09:46;;;;;;;8.33;5.10;;;;;;;15.59;72.17;101073.88;1765428;79;21003;-79
2022/06/12 00:12:13;;;;;;;5.75;4.47;;;;;;;15.67;72.19;101077.02;1755284;80;21141;-84
2022/06/12 00:14:40;;;;;;;8.38;5.17;;;;;;;15.76;72.17;101079.25;1761554;80;21461;-80
2022/06/12 00:17:08;;;;;;;5.37;4.30;;;;;;;15.81;72.20;101075.08;1761476;80;21066;-81
2022/06/12 00:19:36;;;;;;;5.90;4.67;;;;;;;15.83;72.13;101078.04;1772168;80;21048;-80
2022/06/12 00:22:04;;;;;;;6.70;5.30;;;;;;;15.84;71.91;101073.12;1761510;80;21075;-83
2022/06/12 00:24:31;;;;;;;7.10;4.87;;;;;;;15.89;71.97;101078.20;1735559;79;21809;-79
2022/06/12 00:26:59;;;;;;;6.67;5.17;;;;;;;15.92;71.97;101071.92;1776726;80;20977;-84
2022/06/12 00:29:33;;;;;;;6.20;4.95;;;;;;;15.93;71.90;101068.33;1775859;79;21054;-84
2022/06/12 00:32:10;;;;;;;4.85;4.15;;;;;;;15.94;71.91;101066.95;1737334;80;21019;-85
2022/06/12 00:34:43;;;;;;;6.37;4.50;;;;;;;16.01;71.98;101065.70;1773410;79;20995;-85
2022/06/12 00:37:13;;;;;;;5.28;4.78;;;;;;;16.03;71.94;101064.31;1765034;79;21206;-80
2022/06/12 00:39:43;;;;;;;7.55;4.95;;;;;;;16.08;71.96;101054.84;1747628;80;21055;-79
2022/06/12 00:42:34;;;;;;;5.72;5.12;;;;;;;16.10;71.92;101053.84;1769938;79;21456;-84
2022/06/12 00:45:24;;;;;;;5.33;4.50;;;;;;;16.14;71.97;101057.17;1776976;80;21501;-82
2022/06/12 00:47:56;;;;;;;6.78;4.80;;;;;;;16.15;71.96;101062.38;1751462;79;21143;-83
2022/06/12 00:50:24;;;;;;;7.03;4.83;;;;;;;16.16;71.80;101067.22;1774113;80;21078;-82
2022/06/12 00:52:53;;;;;;;6.33;4.95;;;;;;;16.15;71.89;101065.02;1774390;80;20996;-83
2022/06/12 00:55:41;;;;;;;7.30;5.17;;;;;;;16.15;71.76;101068.13;1768309;80;21004;-79
2022/06/12 00:58:13;;;;;;;6.58;5.00;;;;;;;16.16;71.88;101062.78;1776736;80;21030;-84
2022/06/12 01:00:41;;;;;;;7.57;5.27;;;;;;;16.20;71.99;101065.66;1767471;80;20983;-79
2022/06/12 01:03:09;;;;;;;5.92;5.22;;;;;;;16.18;71.79;101066.66;1767307;80;21113;-79
2022/06/12 01:08:23;;;;;;;7.47;5.40;;;;;;;16.18;71.78;101062.69;1761768;80;21010;-79
2022/06/12 01:10:55;;;;;;;8.48;5.53;;;;;;;16.17;71.79;101060.52;1769282;80;20988;-83
2022/06/12 01:13:32;;;;;;;6.92;5.17;;;;;;;16.14;71.82;101060.67;1753187;80;21549;-79
2022/06/12 01:16:04;;;;;;;6.55;4.87;;;;;;;16.10;72.10;101059.56;1764746;80;22168;-81
2022/06/12 01:18:36;;;;;;;7.87;5.17;;;;;;;16.06;72.05;101054.91;1756641;81;21069;-82
2022/06/12 01:21:27;;;;;;;7.50;5.25;;;;;;;16.03;72.10;101061.67;1766820;80;21058;-80
2022/06/12 01:24:21;;;;;;;5.60;5.03;;;;;;;15.98;72.19;101062.36;1751972;80;21529;-83
2022/06/12 01:27:23;;;;;;;8.13;5.25;;;;;;;15.94;72.22;101059.02;1770411;80;21151;-79
2022/06/12 01:30:13;;;;;;;8.03;5.25;;;;;;;15.89;72.27;101054.89;1771279;81;21085;-79
2022/06/12 01:32:58;;;;;;;7.30;5.00;;;;;;;15.86;72.37;101057.68;1750177;81;20988;-79
2022/06/12 01:35:33;;;;;;;5.80;4.55;;;;;;;15.82;72.40;101052.55;1774850;80;21106;-83
2022/06/12 01:38:14;;;;;;;6.15;5.35;;;;;;;15.76;72.35;101052.82;1765740;80;21056;-82
2022/06/12 01:41:05;;;;;;;5.80;5.20;;;;;;;15.72;72.37;101053.91;1763069;81;21007;-84
2022/06/12 01:44:07;;;;;;;6.42;5.15;;;;;;;15.68;72.46;101051.45;1765916;80;21118;-83
2022/06/12 01:46:55;;;;;;;6.50;4.80;;;;;;;15.62;72.67;101046.84;1747755;81;21050;-80
2022/06/12 01:49:36;;;;;;;6.30;5.10;;;;;;;15.59;72.79;101051.42;1753277;81;21043;-79
2022/06/12 01:52:11;;;;;;;7.22;5.00;;;;;;;15.53;72.76;101053.89;1764235;80;21567;-79
2022/06/12 01:54:58;;;;;;;6.75;5.08;;;;;;;15.51;72.90;101043.85;1759157;81;21584;-84
2022/06/12 01:57:39;;;;;;;8.08;5.47;;;;;;;15.49;72.91;101044.85;1749505;80;21165;-82
2022/06/12 02:00:15;;;;;;;6.25;5.55;;;;;;;15.44;73.02;101045.09;1765594;80;21050;-79
2022/06/12 02:03:12;;;;;;;8.30;5.60;;;;;;;15.43;73.04;101047.79;1764478;80;21481;-79
2022/06/12 02:06:11;;;;;;;6.42;5.42;;;;;;;15.43;73.08;101047.32;1767400;80;21020;-84
2022/06/12 02:08:49;;;;;;;5.92;5.25;;;;;;;15.41;73.08;101050.52;1761103;80;21089;-79
2022/06/12 02:14:12;;;;;;;7.65;5.60;;;;;;;15.33;73.02;101056.16;1761546;80;21041;-82
2022/06/12 02:16:44;;;;;;;8.63;5.35;;;;;;;15.28;73.16;101056.83;1756000;80;20992;-83
2022/06/12 02:19:23;;;;;;;7.37;5.65;;;;;;;15.22;73.09;101057.58;1768501;80;21449;-84
2022/06/12 02:21:58;;;;;;;6.72;5.72;;;;;;;15.14;73.09;101053.50;1774993;80;21023;-82
2022/06/12 02:24:33;;;;;;;7.17;5.92;;;;;;;15.06;73.10;101056.09;1763913;80;21130;-81
2022/06/12 02:27:08;;;;;;;7.05;5.20;;;;;;;15.00;73.16;101055.06;1754863;80;20976;-79
2022/06/12 02:29:59;;;;;;;6.95;6.00;;;;;;;14.92;73.28;101052.28;1770564;80;21516;-83
2022/06/12 02:32:35;;;;;;;;;;;;;;;14.84;73.27;101049.12;1778888;80;20996;-80
2022/06/12 02:35:08;;;;;;;6.78;5.33;;;;;;;14.76;73.64;101051.25;1776345;80;21294;-83
2022/06/12 02:37:41;;;;;;;6.30;5.65;;;;;;;14.69;73.65;101041.91;1776221;80;22686;-83
2022/06/12 02:40:17;;;;;;;6.35;5.75;;;;;;;14.66;73.83;101041.58;1739762;80;20961;-81
2022/06/12 02:42:46;;;;;;;8.95;5.92;;;;;;;14.63;73.88;101047.43;1764127;80;21012;-83
2022/06/12 02:45:37;;;;;;;8.23;6.35;;;;;;;14.60;74.15;101054.16;1776909;80;21035;-84
2022/06/12 02:48:07;;;;;;;7.50;6.05;;;;;;;14.61;74.40;101054.58;1776964;80;21003;-79
2022/06/12 02:50:45;;;;;;;9.35;6.37;;;;;;;14.62;74.41;101059.77;1770233;80;21130;-82
2022/06/12 02:53:50;;;;;;;6.42;5.83;;;;;;;14.59;74.48;101060.37;1772216;80;21525;-79
2022/06/12 02:56:44;;;;;;;9.88;6.50;;;;;;;14.58;74.67;101060.84;1775892;80;21070;-83
2022/06/12 02:59:51;;;;;;;7.97;6.50;;;;;;;14.55;74.57;101054.37;1776432;80;21011;-83
2022/06/12 03:02:42;;;;;;;6.62;5.92;;;;;;;14.52;74.65;101053.16;1776835;80;21539;-89
2022/06/12 03:05:24;;;;;;;7.90;6.00;;;;;;;14.46;74.74;101052.08;1758694;80;21163;-82
2022/06/12 03:08:00;;;;;;;8.85;6.50;;;;;;;14.45;74.87;101055.19;1742605;80;21029;-82
2022/06/12 03:10:38;;;;;;;7.30;6.30;;;;;;;14.41;74.89;101058.01;1726932;82;21022;-78
2022/06/12 03:13:10;;;;;;;7.47;5.97;;;;;;;14.38;75.09;101057.70;1714910;82;21076;-83
2022/06/12 03:15:45;;;;;;;7.25;6.00;;;;;;;14.34;75.09;101060.06;1690473;83;21053;-83
2022/06/12 03:18:24;;;;;;;7.55;5.67;;;;;;;14.31;75.12;101064.61;1703747;83;21071;-81
2022/06/12 03:21:22;;;;;;;7.35;5.95;;;;;;;14.30;75.35;101066.41;1694897;83;21062;-79
2022/06/12 03:24:17;;;;;;;7.85;6.22;;;;;;;14.32;75.69;101068.48;1641149;84;21810;-81
2022/06/12 03:27:06;;;;;;;6.95;6.25;;;;;;;14.34;75.86;101066.66;1695038;83;21444;-82
2022/06/12 03:29:54;;;;;;;7.83;6.90;;;;;;;14.39;75.99;101066.47;1697311;83;21310;-79
2022/06/12 03:32:35;;;;;;;8.50;6.15;;;;;;;14.44;76.21;101061.87;1720254;82;21809;-82
2022/06/12 03:35:26;;;;;;;7.42;6.62;;;;;;;14.51;76.38;101061.98;1772474;79;20999;-82
2022/06/12 03:38:10;;;;;;;8.50;6.40;;;;;;;14.57;76.58;101056.94;1746535;80;20997;-78
2022/06/12 03:40:46;;;;;;;8.70;6.60;;;;;;;14.63;76.44;101057.98;1748546;80;21030;-81
2022/06/12 03:44:00;;;;;;;9.83;7.00;;;;;;;14.70;76.55;101064.25;1776351;80;20988;-81
2022/06/12 03:46:36;;;;;;;8.43;6.80;;;;;;;14.78;76.73;101070.98;1772648;80;21216;-82
2022/06/12 03:49:28;;;;;;;9.50;6.70;;;;;;;14.89;77.11;101062.98;1773956;80;21035;-83
2022/06/12 03:52:12;;;;;;;8.70;6.65;;;;;;;15.01;77.40;101066.00;1779307;80;20991;-81
2022/06/12 03:54:38;;;;;;;;;;;;;;;15.14;77.63;101069.34;1778410;80;21070;-78
2022/06/12 04:00:13;;;;;;;6.92;5.55;;;;;;;15.41;78.11;101074.30;1782260;80;21879;-81
2022/06/12 04:02:41;;;;;;;6.65;5.80;;;;;;;15.60;78.32;101068.55;1779046;80;21066;-81
2022/06/12 04:05:12;;;;;;;6.78;5.70;;;;;;;15.78;78.20;101074.75;1761222;80;20980;-79
2022/06/12 04:07:44;;;;;;;10.23;5.60;;;;;;;15.94;78.02;101060.81;1728377;80;21035;-81
2022/06/12 04:10:18;;;;;;;7.00;5.60;;;;;;;16.10;77.65;101059.12;1759441;80;21102;-79
2022/06/12 04:12:47;;;;;;;7.87;5.55;;;;;;;16.26;77.33;101059.20;1764664;81;21127;-80
2022/06/12 04:15:25;;;;;;;6.00;4.97;;;;;;;16.42;77.05;101056.17;1771287;80;21000;-78
2022/06/12 04:17:55;;;;;;;6.47;5.03;;;;;;;16.59;76.71;101064.56;1770725;80;21107;-79
2022/06/12 04:20:30;;;;;;;6.58;4.97;;;;;;;16.75;76.35;101069.92;1768915;80;21600;-79
2022/06/12 04:23:10;;;;;;;8.50;5.10;;;;;;;16.88;76.04;101064.89;1766407;80;21027;-79
2022/06/12 04:25:52;;;;;;;9.20;5.15;;;;;;;16.99;75.72;101069.59;1767031;80;21854;-82
2022/06/12 04:28:33;;;;;;;6.05;5.20;;;;;;;17.10;75.37;101069.43;1749267;81;21849;-78
2022/06/12 04:31:05;;;;;;;5.90;4.72;;;;;;;17.20;75.16;101070.25;1771597;80;21015;-79
2022/06/12 04:33:44;;;;;;;6.65;5.20;;;;;;;17.28;75.05;101075.98;1767251;80;21501;-79
2022/06/12 04:36:13;;;;;;;7.75;5.10;;;;;;;17.36;74.74;101072.45;1756303;80;21039;-81
2022/06/12 04:38:41;;;;;;;6.83;5.45;;;;;;;17.47;74.53;101059.94;1734494;81;21130;-80
2022/06/12 04:41:08;;;;;;;7.97;5.40;;;;;;;17.47;74.53;101059.94;1729242;81;21045;-83
2022/06/12 04:43:36;;;;;;;6.20;4.80;;;;;;;17.53;74.06;101055.14;1742482;81;21054;-81
2022/06/12 04:46:04;;;;;;;6.87;4.80;;;;;;;17.53;74.06;101055.14;1756845;81;20991;-78
2022/06/12 04:48:42;;;;;;;6.92;4.80;;;;;;;17.62;73.85;101068.34;1745748;81;21062;-83
2022/06/12 04:51:11;;;;;;;7.30;4.87;;;;;;;17.69;73.76;101074.19;1758638;81;21879;-81
2022/06/12 04:53:40;;;;;;;8.38;5.03;;;;;;;17.74;73.67;101080.94;1745503;80;21083;-78
2022/06/12 04:56:09;;;;;;;6.75;5.25;;;;;;;17.79;73.61;101083.34;1755122;81;21026;-82
2022/06/12 04:58:39;;;;;;;6.17;5.17;;;;;;;17.83;73.50;101081.77;1758224;80;21039;-78
2022/06/12 05:01:07;;;;;;;7.00;5.62;;;;;;;17.88;73.21;101086.82;1770554;80;21146;-80
2022/06/12 05:03:36;;;;;;;8.38;5.53;;;;;;;17.93;73.12;101087.86;1766917;80;21087;-83
2022/06/12 05:06:04;;;;;;;6.78;5.78;;;;;;;17.96;73.03;101087.24;1761119;80;20912;-79
2022/06/12 05:08:33;;;;;;;7.15;5.72;;;;;;;18.04;72.93;101093.41;1763315;80;21062;-84
2022/06/12 05:11:01;;;;;;;9.20;6.25;;;;;;;18.10;72.81;101090.44;1761501;80;21027;-81
2022/06/12 05:13:28;;;;;;;7.00;5.67;;;;;;;18.18;72.83;101092.17;1770950;81;21078;-81
2022/06/12 05:15:55;;;;;;;8.75;6.17;;;;;;;18.25;72.62;101086.03;1767479;80;21099;-80
2022/06/12 05:18:23;;;;;;;7.55;6.10;;;;;;;18.31;72.59;101084.33;1766461;81;21000;-83
2022/06/12 05:20:50;;;;;;;8.08;6.40;;;;;;;18.38;72.46;101089.68;1774693;79;21011;-79
2022/06/12 05:23:19;;;;;;;9.30;6.83;;;;;;;18.45;72.30;101087.50;1775813;80;21078;-81
2022/06/12 05:25:46;;;;;;;8.55;6.70;;;;;;;18.51;72.19;101084.48;1774852;80;21638;-81
2022/06/12 05:28:17;;;;;;;8.45;5.97;;;;;;;18.56;71.98;101086.39;1771738;80;21130;-81
2022/06/12 05:30:46;;;;;;;8.30;5.92;;;;;;;18.62;71.91;101086.05;1772913;80;21003;-79
2022/06/12 05:33:13;;;;;;;8.28;6.50;;;;;;;18.69;71.84;101087.38;1771706;79;20980;-81
2022/06/12 05:35:42;;;;;;;6.60;6.00;;;;;;;18.75;71.77;101083.53;1774935;79;21567;-83
2022/06/12 05:38:11;;;;;;;7.62;6.28;;;;;;;18.78;71.66;101087.80;1773337;80;20980;-84
2022/06/12 05:40:40;;;;;;;6.75;6.05;;;;;;;18.83;71.63;101088.38;1776289;80;21082;-81
2022/06/12 05:43:08;;;;;;;7.22;6.53;;;;;;;18.88;71.40;101086.31;1770517;80;21453;-80
2022/06/12 05:45:36;;;;;;;8.08;6.58;;;;;;;18.92;71.31;101094.45;1776070;80;22247;-80
2022/06/12 05:48:13;;;;;;;7.47;6.45;;;;;;;18.97;71.30;101091.05;1752084;79;21039;-84
2022/06/12 05:50:56;;;;;;;8.85;6.60;;;;;;;19.02;71.18;101090.30;1772130;80;21010;-85
2022/06/12 05:53:27;;;;;;;9.10;6.25;;;;;;;19.05;70.94;101087.45;1769923;80;21129;-84
2022/06/12 05:55:56;;;;;;;9.83;7.00;;;;;;;19.09;71.02;101081.46;1708031;83;21007;-79
2022/06/12 05:58:26;;;;;;;9.33;6.97;;;;;;;19.14;70.70;101082.03;1728009;82;21059;-81
2022/06/12 06:00:54;;;;;;;7.90;7.10;;;;;;;19.17;70.61;101081.36;1692874;83;21119;-80
2022/06/12 06:03:22;;;;;;;8.13;7.12;;;;;;;19.22;70.34;101086.88;1708761;82;21060;-81
2022/06/12 06:05:50;;;;;;;8.00;6.97;;;;;;;19.25;70.29;101082.22;1767676;80;21076;-79
2022/06/12 06:08:18;;;;;;;8.03;6.83;;;;;;;19.31;70.31;101083.16;1741274;80;20995;-79
2022/06/12 06:10:45;;;;;;;9.20;7.33;;;;;;;19.36;70.38;101086.39;1753132;80;21089;-81
2022/06/12 06:13:14;;;;;;;6.75;6.10;;;;;;;19.43;70.21;101082.00;1765404;80;21000;-84
2022/06/12 06:15:43;;;;;;;8.90;6.37;;;;;;;19.49;70.14;101085.63;1755026;80;21154;-81
2022/06/12 06:18:15;;;;;;;11.50;6.75;;;;;;;19.53;69.95;101082.66;1752511;80;20950;-79
2022/06/12 06:20:42;;;;;;;9.33;6.85;;;;;;;19.59;69.71;101078.30;1739575;80;21056;-92
2022/06/12 06:23:10;;;;;;;7.60;6.72;;;;;;;19.66;69.72;101084.10;1767126;80;21485;-83
2022/06/12 06:25:38;;;;;;;8.20;6.90;;;;;;;19.71;69.62;101078.02;1742774;79;21084;-79
2022/06/12 06:28:08;;;;;;;10.18;6.95;;;;;;;19.77;69.63;101076.28;1764962;80;21106;-86
2022/06/12 06:30:37;;;;;;;8.03;6.87;;;;;;;19.86;69.54;101080.14;1759973;80;21114;-85
2022/06/12 06:33:04;;;;;;;8.25;6.50;;;;;;;19.93;69.23;101080.14;1772405;80;21542;-89
2022/06/12 06:35:32;;;;;;;11.40;7.05;;;;;;;20.00;69.06;101077.91;1756311;80;21520;-89
2022/06/12 06:37:59;;;;;;;10.70;6.28;;;;;;;20.08;68.97;101081.41;1751568;80;21435;-87
2022/06/12 06:40:30;;;;;;;8.23;6.55;;;;;;;20.13;68.81;101078.81;1765242;80;21063;-92
2022/06/12 06:42:57;;;;;;;6.17;5.65;;;;;;;20.20;68.61;101067.27;1742342;80;21094;-87
2022/06/12 06:48:14;;;;;;;5.60;5.05;;;;;;;20.34;67.85;101069.89;1743882;79;21029;-90
2022/06/12 06:50:42;;;;;;;7.55;5.92;;;;;;;20.42;67.68;101070.19;1755551;80;21090;-93
2022/06/12 06:53:11;;;;;;;5.87;5.28;;;;;;;20.47;67.62;101071.22;1776709;80;21007;-92
2022/06/12 06:55:41;;;;;;;7.62;6.10;;;;;;;20.56;67.65;101063.11;1756247;80;21862;-90
2022/06/12 06:58:13;;;;;;;7.15;5.97;;;;;;;20.63;67.26;101062.59;1753276;80;21065;-92
2022/06/12 07:00:43;;;;;;;9.78;6.35;;;;;;;20.68;67.02;101061.80;1748027;80;21477;-93
2022/06/12 07:03:12;;;;;;;7.58;5.70;;;;;;;20.78;66.97;101056.67;1762693;80;21894;-84
2022/06/12 07:05:45;;;;;;;6.05;5.45;;;;;;;20.84;66.85;101053.61;1768835;80;21008;-85
2022/06/12 07:08:13;;;;;;;7.85;5.58;;;;;;;20.89;66.74;101054.11;1776914;80;21089;-83
2022/06/12 07:10:41;;;;;;;7.05;5.58;;;;;;;20.95;66.74;101056.86;1778519;80;21011;-83
2022/06/12 07:13:09;;;;;;;5.67;5.10;;;;;;;21.03;66.60;101057.14;1772731;80;21063;-83
2022/06/12 07:15:37;;;;;;;6.15;4.95;;;;;;;21.11;66.67;101056.12;1782410;80;21469;-83
2022/06/12 07:18:07;;;;;;;6.62;4.78;;;;;;;21.22;66.28;101047.85;1754621;80;21203;-86
2022/06/12 07:20:37;;;;;;;;;;;;;;;21.34;66.40;101049.17;1762501;80;21127;-81
2022/06/12 07:23:07;;;;;;;5.03;4.22;;;;;;;21.48;65.59;101044.70;1759211;80;20188;-80
2022/06/12 07:25:43;;;;;;;5.12;4.60;;;;;;;21.56;65.61;101048.95;1761644;80;21043;-81
2022/06/12 07:28:11;;;;;;;6.47;4.40;;;;;;;21.69;65.51;101044.92;1765991;80;21168;-82
2022/06/12 07:30:39;;;;;;;4.83;4.37;;;;;;;21.79;65.05;101044.63;1768350;80;21116;-82
2022/06/12 07:33:08;;;;;;;3.70;2.90;;;;;;;21.86;64.78;101045.85;1774301;80;21089;-80
2022/06/12 07:35:38;;;;;;;4.60;2.98;;;;;;;21.93;63.85;101049.78;1775650;80;21031;-80
2022/06/12 07:38:05;;;;;;;5.62;3.08;;;;;;;21.98;63.20;101048.96;1766183;80;21013;-82
2022/06/12 07:40:38;;;;;;;5.17;3.27;;;;;;;22.08;62.98;101049.11;1770174;80;20986;-86
2022/06/12 07:43:06;;;;;;;6.37;3.30;;;;;;;22.20;62.65;101042.89;1773307;80;21229;-85
2022/06/12 07:45:33;;;;;;;2.83;1.72;;;;;;;22.32;62.22;101042.93;1776535;80;21131;-84
2022/06/12 07:48:00;;;;;;;4.40;1.80;;;;;;;22.45;61.16;101042.36;1766436;80;21038;-87
2022/06/12 07:50:27;;;;;;;2.42;2.22;;;;;;;22.57;60.47;101049.42;1761264;80;21013;-84
2022/06/12 07:52:55;;;;;;;3.05;1.90;;;;;;;22.67;60.04;101049.08;1761666;80;21093;-88
2022/06/12 07:55:24;;;;;;;3.08;2.00;;;;;;;22.79;59.33;101046.42;1757292;80;21059;-88
2022/06/12 07:57:51;;;;;;;3.20;2.37;;;;;;;22.85;58.79;101040.59;1754525;80;21116;-82
2022/06/12 08:00:19;;;;;;;7.35;2.60;;;;;;;22.87;58.61;101046.19;1774180;80;21461;-85
2022/06/12 08:02:47;;;;;;;4.28;2.47;;;;;;;23.01;58.68;101049.14;1766030;80;21038;-82
2022/06/12 08:05:20;;;;;;;2.47;2.17;;;;;;;23.12;58.08;101052.30;1767266;80;21037;-83
2022/06/12 08:07:46;;;;;;;;;;;;;;;23.18;57.41;101049.63;1756449;80;20992;-82
2022/06/12 08:10:15;;;;;;;2.45;1.92;;;;;;;23.25;56.74;101058.38;1767344;80;21148;-82
2022/06/12 08:12:44;;;;;;;2.12;1.72;;;;;;;23.33;56.68;101053.27;1761148;80;21049;-81
2022/06/12 08:15:16;;;;;;;2.02;1.70;;;;;;;23.37;56.35;101055.20;1761688;80;21033;-81
2022/06/12 08:17:44;;;;;;;3.87;1.87;;;;;;;23.43;55.87;101048.50;1771776;80;21504;-81
2022/06/12 08:20:25;;;;;;;2.17;1.50;;;;;;;23.54;55.93;101053.83;1761631;80;21292;-81
2022/06/12 08:23:30;;;;;;;3.05;1.70;;;;;;;23.69;54.77;101049.88;1772050;80;21193;-80
2022/06/12 08:26:11;;;;;;;2.30;1.62;;;;;;;23.81;54.30;101046.25;1772165;80;21445;-81
2022/06/12 08:28:46;;;;;;;2.33;1.60;;;;;;;23.95;54.05;101044.27;1761437;80;21056;-86
2022/06/12 08:31:18;;;;;;;2.10;1.70;;;;;;;24.09;53.34;101038.59;1761342;80;21022;-84
2022/06/12 08:33:49;;;;;;;4.10;2.00;;;;;;;24.19;53.70;101038.19;1754956;80;21030;-82
2022/06/12 08:36:18;;;;;;;4.45;2.10;;;;;;;24.33;53.38;101042.38;1767966;80;21174;-82
2022/06/12 08:38:47;;;;;;;6.50;2.13;;;;;;;24.43;53.11;101039.29;1776151;80;20998;-83
2022/06/12 08:41:35;;;;;;;2.17;1.60;;;;;;;24.62;53.07;101045.77;1754617;80;21197;-83
2022/06/12 08:44:31;;;;;;;3.80;2.15;;;;;;;24.76;52.43;101037.87;1761455;80;21420;-82
2022/06/12 08:47:13;;;;;;;1.98;1.77;;;;;;;24.96;52.37;101032.94;1750756;80;21511;-83
2022/06/12 08:49:52;;;;;;;1.80;1.57;;;;;;;25.17;51.95;101027.56;1761471;80;21054;-83
2022/06/12 08:52:30;;;;;;;2.13;1.50;;;;;;;25.25;50.92;101037.13;1767031;80;21026;-84
2022/06/12 08:55:20;;;;;;;3.72;2.02;;;;;;;25.17;50.35;101033.42;1775845;80;21027;-84
2022/06/12 08:58:24;;;;;;;4.08;2.30;;;;;;;25.10;49.95;101031.73;1769226;80;21742;-84
2022/06/12 09:00:54;;;;;;;3.98;1.65;;;;;;;25.07;49.87;101032.84;1773877;80;21037;-84
2022/06/12 09:03:26;;;;;;;3.83;1.90;;;;;;;24.99;49.26;101027.80;1769250;80;21235;-85
2022/06/12 09:06:19;;;;;;;5.30;1.40;;;;;;;25.00;49.19;101022.32;1763697;80;21002;-85
2022/06/12 09:08:56;;;;;;;1.77;1.32;;;;;;;25.04;48.62;101023.73;1770816;80;21044;-82
2022/06/12 09:11:50;;;;;;;2.80;1.40;;;;;;;25.14;47.98;101024.66;1766992;80;21039;-81
2022/06/12 09:14:52;;;;;;;3.00;1.30;;;;;;;25.24;47.70;101015.78;1746160;80;21045;-82
2022/06/12 09:17:45;;;;;;;4.45;2.20;;;;;;;25.34;47.14;101013.48;1770279;80;21073;-82
2022/06/12 09:20:21;;;;;;;3.30;1.25;;;;;;;25.45;46.30;101009.00;1781999;80;21022;-81
2022/06/12 09:23:14;;;;;;;2.40;1.57;;;;;;;25.54;46.06;101000.09;1778787;80;21161;-82
2022/06/12 09:25:59;;;;;;;3.65;2.05;;;;;;;25.65;46.44;101001.81;1781028;80;21051;-81
2022/06/12 09:28:58;;;;;;;2.67;1.60;;;;;;;25.84;46.78;100997.83;1771928;80;21558;-81
2022/06/12 09:31:30;;;;;;;4.40;2.00;;;;;;;25.97;46.63;100997.55;1773713;80;21117;-82
2022/06/12 09:34:30;;;;;;;3.05;1.60;;;;;;;26.14;46.30;100993.29;1683862;83;21603;-82
2022/06/12 09:38:18;;;;;;;3.60;1.72;;;;;;;26.20;45.92;100995.40;1713759;82;21535;-82
2022/06/12 09:39:43;;;;;;;3.27;1.27;;;;;;;26.32;45.72;100987.52;1732256;82;21272;-82
2022/06/12 09:42:25;;;;;;;4.08;1.70;;;;;;;26.43;45.65;100981.97;1777355;80;20971;-81
2022/06/12 09:45:09;;;;;;;2.17;1.37;;;;;;;26.60;45.44;100982.23;1759126;80;21240;-81
2022/06/12 09:47:54;;;;;;;3.08;1.50;;;;;;;26.82;45.34;100975.14;1768079;80;21551;-81
2022/06/12 09:50:51;;;;;;;2.60;1.40;;;;;;;27.02;44.58;100965.63;1753306;80;20998;-81
2022/06/12 09:53:39;;;;;;;3.83;1.30;;;;;;;27.14;44.05;100956.37;1702447;83;21068;-80
2022/06/12 09:56:42;;;;;;;1.83;1.30;;;;;;;27.19;43.53;100955.92;1758457;80;21019;-82
2022/06/12 09:59:18;;;;;;;3.25;1.30;;;;;;;27.24;43.61;100956.33;1761689;80;21125;-81
2022/06/12 10:01:50;;;;;;;1.52;1.10;;;;;;;27.46;43.25;100948.31;1766586;80;20978;-81
2022/06/12 10:04:49;;;;;;;4.03;1.55;;;;;;;27.60;43.03;100962.58;1760380;80;20923;-81
2022/06/12 10:07:34;;;;;;;3.55;1.50;;;;;;;27.59;42.08;100955.52;1780455;80;20976;-82
2022/06/12 10:10:19;;;;;;;1.57;1.00;;;;;;;27.52;41.84;100952.59;1781406;80;21031;-81
2022/06/12 10:12:51;;;;;;;2.02;1.35;;;;;;;27.53;41.64;100944.02;1747993;80;21139;-82
2022/06/12 10:15:29;;;;;;;1.60;1.10;;;;;;;27.66;41.57;100943.61;1743509;81;21057;-81
2022/06/12 10:18:05;;;;;;;4.03;1.47;;;;;;;27.73;41.48;100937.45;1730951;81;21049;-81
2022/06/12 10:20:36;;;;;;;6.22;1.80;;;;;;;27.95;41.46;100931.27;1760486;80;22173;-82
2022/06/12 10:23:04;;;;;;;7.15;1.40;;;;;;;28.17;40.89;100936.14;1745923;80;21566;-82
2022/06/12 10:25:36;;;;;;;3.30;1.20;;;;;;;28.02;40.04;100935.04;1717399;80;21174;-81
2022/06/12 10:28:12;;;;;;;4.35;1.37;;;;;;;27.85;39.98;100928.66;1758879;80;21564;-82
2022/06/12 10:30:47;;;;;;;3.02;1.15;;;;;;;27.77;40.08;100918.65;1754081;80;21628;-82
2022/06/12 10:33:30;;;;;;;3.55;1.17;;;;;;;27.71;39.59;100919.75;1770294;80;21043;-82
2022/06/12 10:36:05;;;;;;;2.80;1.15;;;;;;;27.62;39.54;100912.62;1751794;81;21007;-82
2022/06/12 10:38:36;;;;;;;2.70;0.82;;;;;;;27.57;39.66;100912.59;1771497;80;21234;-80
2022/06/12 10:41:08;;;;;;;2.08;1.25;;;;;;;27.55;39.52;100915.09;1749287;81;21276;-86
2022/06/12 10:43:46;;;;;;;3.30;1.65;;;;;;;27.45;39.29;100919.70;1745499;80;21035;-82
2022/06/12 10:46:24;;;;;;;2.55;1.05;;;;;;;27.25;39.12;100919.85;1772679;80;21036;-84
2022/06/12 10:49:00;;;;;;;3.07;1.30;;;;;;;27.08;39.19;100918.80;1771757;81;21103;-83
2022/06/12 10:51:38;;;;;;;1.35;1.00;;;;;;;27.01;39.38;100916.36;1771251;80;21195;-80
2022/06/12 10:54:17;;;;;;;3.42;1.10;;;;;;;27.04;39.74;100911.17;1769654;80;21518;-83
2022/06/12 10:56:55;;;;;;;2.45;1.05;;;;;;;27.16;39.70;100910.02;1760845;80;21053;-79
2022/06/12 10:59:37;;;;;;;2.90;1.17;;;;;;;27.21;39.45;100905.50;1752311;80;20952;-83
2022/06/12 11:02:31;;;;;;;2.92;0.88;;;;;;;27.19;39.31;100904.80;1752278;80;21049;-84
2022/06/12 11:05:04;;;;;;;3.10;1.30;;;;;;;27.17;39.16;100905.47;1742287;81;21189;-82
2022/06/12 11:07:42;;;;;;;3.52;1.30;;;;;;;27.13;39.37;100899.49;1764792;81;21056;-82
2022/06/12 11:10:24;;;;;;;1.50;0.80;;;;;;;27.15;39.50;100893.47;1770258;81;21039;-82
2022/06/12 11:13:10;;;;;;;1.85;0.90;;;;;;;27.24;39.40;100894.42;1771679;80;21035;-81
2022/06/12 11:16:22;;;;;;;1.40;1.00;;;;;;;27.66;39.81;100881.19;1758541;80;21017;-82
2022/06/12 11:19:11;;;;;;;2.00;0.88;;;;;;;28.05;39.14;100875.91;1746207;80;21129;-82
2022/06/12 11:22:20;;;;;;;2.92;1.00;;;;;;;28.37;38.95;100873.41;1754792;80;21047;-82
2022/06/12 11:24:56;;;;;;;2.58;0.82;;;;;;;28.31;38.44;100870.01;1766896;79;21519;-84
2022/06/12 11:27:51;;;;;;;1.30;1.07;;;;;;;28.14;38.42;100872.28;1756937;80;46941;-83
2022/06/12 11:30:46;;;;;;;2.08;1.10;;;;;;;27.99;38.67;100870.19;1755813;80;21152;-82
2022/06/12 11:33:31;;;;;;;3.58;0.82;;;;;;;27.91;38.70;100871.98;1739249;79;21125;-83
2022/06/12 11:36:12;;;;;;;2.45;1.05;;;;;;;27.89;38.15;100867.25;1741540;80;21075;-81
2022/06/12 11:39:09;;;;;;;1.42;0.90;;;;;;;27.95;37.75;100867.95;1739419;80;21102;-82
2022/06/12 11:42:00;;;;;;;2.98;0.80;;;;;;;27.99;37.41;100860.75;1757171;79;21436;-80
2022/06/12 11:44:45;;;;;;;1.70;0.82;;;;;;;28.07;37.40;100859.09;1759085;80;21572;-80
2022/06/12 11:47:47;;;;;;;2.52;0.98;;;;;;;28.16;37.42;100863.03;1757484;80;21111;-82
2022/06/12 11:50:28;;;;;;;2.17;0.95;;;;;;;28.32;37.23;100849.28;1745936;79;21003;-83
2022/06/12 11:53:30;;;;;;;2.47;1.00;;;;;;;28.63;37.31;100843.73;1756822;80;21723;-83
2022/06/12 11:56:22;;;;;;;1.35;0.70;;;;;;;29.03;37.11;100844.85;1759823;80;21044;-84
2022/06/12 11:59:21;;;;;;;2.52;0.90;;;;;;;29.47;36.62;100841.84;1742728;80;21567;-86
2022/06/12 12:01:59;;;;;;;2.35;1.20;;;;;;;29.67;36.03;100844.23;1776142;80;21628;-84
2022/06/12 12:04:41;;;;;;;3.42;1.27;;;;;;;29.63;35.43;100834.77;1765831;80;21492;-82
2022/06/12 12:07:39;;;;;;;1.98;1.25;;;;;;;29.62;35.39;100837.11;1765508;80;21037;-85
2022/06/12 12:10:31;;;;;;;1.52;0.85;;;;;;;29.58;34.89;100832.05;1761587;80;20991;-83
2022/06/12 12:13:05;;;;;;;2.05;1.00;;;;;;;29.36;34.65;100831.39;1772225;80;21073;-82
2022/06/12 12:15:50;;;;;;;1.35;0.60;;;;;;;29.43;34.60;100823.44;1761485;80;21068;-87
2022/06/12 12:18:46;;;;;;;3.42;0.70;;;;;;;29.49;34.47;100820.09;1680986;84;21019;-82
2022/06/12 12:21:20;;;;;;;1.72;0.60;;;;;;;29.60;34.23;100825.62;1698421;83;21144;-82
2022/06/12 12:23:49;;;;;;;2.40;0.70;;;;;;;29.58;33.81;100820.41;1710879;82;21055;-81
2022/06/12 12:26:33;;;;;;;1.40;0.70;;;;;;;29.75;34.00;100814.50;1693094;82;21594;-82